UAL1629 KEWR-TNCM
Flight info
| Callsign | UAL1629 |
|---|---|
| Flight time | 3h 28m |
| Altitude | 33000 |
| Route | ELVAE DCT NECCK DCT DIXIE Y481 OHRYN/N0448F340 Y489 BEHHR/M078F340 Y489 RESQU/M078F330 DCT SKPPR L455 BEXUM/M078F350 L455 KINCH/N0459F350 L455 LENNT DCT SLUGO |
| Aircraft | B739/M-SDE2E3FGHIRWXY/LB1 |
Departure
| Time | 2026-04-23 18:37 |
|---|---|
| Airport | Newark Liberty International Airport (KEWR) |
Arrival
| Time | 2026-04-23 22:05 |
|---|---|
| Airport | Princess Juliana International Airport (TNCM) |
| Time | Latitude | Longitude | Altitude | Speed | Heading |
|---|---|---|---|---|---|
| 2026-04-23 18:06 | 40.69821 | -74.17521 | 21 ft | 0 kts | 166° |
| 2026-04-23 18:21 | 40.69839 | -74.17529 | 25 ft | 4 kts | 139° |
| 2026-04-23 18:21 | 40.69851 | -74.17556 | 23 ft | 4 kts | 96° |
| 2026-04-23 18:22 | 40.69850 | -74.17591 | 22 ft | 4 kts | 76° |
| 2026-04-23 18:22 | 40.69841 | -74.17624 | 22 ft | 4 kts | 60° |
| 2026-04-23 18:22 | 40.69828 | -74.17645 | 21 ft | 0 kts | 40° |
| 2026-04-23 18:26 | 40.69834 | -74.17639 | 22 ft | 3 kts | 40° |
| 2026-04-23 18:26 | 40.69870 | -74.17599 | 21 ft | 10 kts | 40° |
| 2026-04-23 18:27 | 40.69898 | -74.17518 | 21 ft | 10 kts | 92° |
| 2026-04-23 18:27 | 40.69880 | -74.17427 | 22 ft | 11 kts | 111° |
| 2026-04-23 18:27 | 40.69831 | -74.17324 | 21 ft | 17 kts | 130° |
| 2026-04-23 18:27 | 40.69744 | -74.17211 | 21 ft | 18 kts | 140° |
| 2026-04-23 18:28 | 40.69640 | -74.17128 | 21 ft | 17 kts | 155° |
| 2026-04-23 18:28 | 40.69519 | -74.17081 | 21 ft | 19 kts | 169° |
| 2026-04-23 18:28 | 40.69393 | -74.17072 | 21 ft | 18 kts | 186° |
| 2026-04-23 18:28 | 40.69277 | -74.17121 | 21 ft | 17 kts | 204° |
| 2026-04-23 18:29 | 40.69170 | -74.17189 | 22 ft | 17 kts | 205° |
| 2026-04-23 18:29 | 40.69061 | -74.17258 | 21 ft | 17 kts | 206° |
| 2026-04-23 18:29 | 40.68956 | -74.17325 | 21 ft | 16 kts | 206° |
| 2026-04-23 18:29 | 40.68854 | -74.17389 | 22 ft | 16 kts | 206° |
| 2026-04-23 18:30 | 40.68757 | -74.17452 | 21 ft | 15 kts | 205° |
| 2026-04-23 18:30 | 40.68664 | -74.17510 | 21 ft | 15 kts | 205° |
| 2026-04-23 18:30 | 40.68567 | -74.17571 | 21 ft | 16 kts | 205° |
| 2026-04-23 18:30 | 40.68462 | -74.17639 | 22 ft | 18 kts | 206° |
| 2026-04-23 18:31 | 40.68344 | -74.17714 | 21 ft | 21 kts | 205° |
| 2026-04-23 18:31 | 40.68206 | -74.17801 | 23 ft | 22 kts | 206° |
| 2026-04-23 18:31 | 40.68070 | -74.17887 | 21 ft | 21 kts | 205° |
| 2026-04-23 18:31 | 40.67938 | -74.17972 | 21 ft | 21 kts | 206° |
| 2026-04-23 18:32 | 40.67810 | -74.18053 | 21 ft | 20 kts | 206° |
| 2026-04-23 18:32 | 40.67704 | -74.18120 | 21 ft | 10 kts | 204° |
| 2026-04-23 18:32 | 40.67641 | -74.18109 | 21 ft | 11 kts | 136° |
| 2026-04-23 18:32 | 40.67604 | -74.18053 | 23 ft | 0 kts | 130° |
| 2026-04-23 18:35 | 40.67594 | -74.18037 | 21 ft | 9 kts | 130° |
| 2026-04-23 18:35 | 40.67560 | -74.17962 | 22 ft | 10 kts | 104° |
| 2026-04-23 18:35 | 40.67588 | -74.17913 | 22 ft | 5 kts | 26° |
| 2026-04-23 18:35 | 40.67598 | -74.17907 | 22 ft | 0 kts | 26° |
| 2026-04-23 18:36 | 40.67623 | -74.17891 | 21 ft | 16 kts | 26° |
| 2026-04-23 18:36 | 40.67946 | -74.17686 | 19 ft | 87 kts | 26° |
| 2026-04-23 18:36 | 40.68681 | -74.17219 | 22 ft | 145 kts | 24° |
| 2026-04-23 18:37 | 40.69719 | -74.16566 | 190 ft | 176 kts | 17° |
| 2026-04-23 18:37 | 40.70836 | -74.15806 | 656 ft | 188 kts | 27° |
| 2026-04-23 18:37 | 40.71899 | -74.14869 | 1370 ft | 190 kts | 37° |
| 2026-04-23 18:37 | 40.72884 | -74.13630 | 1837 ft | 205 kts | 39° |
| 2026-04-23 18:38 | 40.73994 | -74.12305 | 2148 ft | 226 kts | 38° |
| 2026-04-23 18:38 | 40.75187 | -74.10830 | 2479 ft | 242 kts | 36° |
| 2026-04-23 18:38 | 40.76665 | -74.09941 | 3085 ft | 233 kts | 3° |
| 2026-04-23 18:38 | 40.78270 | -74.10309 | 3449 ft | 242 kts | 328° |
| 2026-04-23 18:39 | 40.79380 | -74.11976 | 3976 ft | 251 kts | 291° |
| 2026-04-23 18:39 | 40.79786 | -74.14194 | 4936 ft | 249 kts | 282° |
| 2026-04-23 18:39 | 40.80099 | -74.16446 | 5727 ft | 251 kts | 283° |
| 2026-04-23 18:39 | 40.80449 | -74.18708 | 6634 ft | 249 kts | 287° |
| 2026-04-23 18:40 | 40.80856 | -74.20928 | 7449 ft | 248 kts | 288° |
| 2026-04-23 18:40 | 40.81299 | -74.23131 | 8265 ft | 249 kts | 289° |
| 2026-04-23 18:40 | 40.81741 | -74.25340 | 9088 ft | 250 kts | 284° |
| 2026-04-23 18:40 | 40.81598 | -74.27669 | 9862 ft | 265 kts | 259° |
| 2026-04-23 18:41 | 40.80753 | -74.29884 | 10391 ft | 287 kts | 242° |
| 2026-04-23 18:41 | 40.79242 | -74.31855 | 10542 ft | 327 kts | 221° |
| 2026-04-23 18:41 | 40.77053 | -74.33120 | 10708 ft | 362 kts | 199° |
| 2026-04-23 18:41 | 40.74475 | -74.33464 | 11085 ft | 385 kts | 180° |
| 2026-04-23 18:42 | 40.71806 | -74.32877 | 11798 ft | 391 kts | 171° |
| 2026-04-23 18:42 | 40.69187 | -74.31990 | 12459 ft | 394 kts | 169° |
| 2026-04-23 18:42 | 40.66498 | -74.31056 | 13075 ft | 399 kts | 170° |
| 2026-04-23 18:42 | 40.63787 | -74.30183 | 13750 ft | 401 kts | 172° |
| 2026-04-23 18:43 | 40.61056 | -74.29380 | 14357 ft | 403 kts | 173° |
| 2026-04-23 18:43 | 40.58296 | -74.28611 | 14896 ft | 408 kts | 173° |
| 2026-04-23 18:43 | 40.55508 | -74.27845 | 15452 ft | 412 kts | 173° |
| 2026-04-23 18:43 | 40.52722 | -74.26818 | 15983 ft | 420 kts | 165° |
| 2026-04-23 18:44 | 40.49965 | -74.25452 | 16518 ft | 425 kts | 162° |
| 2026-04-23 18:44 | 40.47201 | -74.24019 | 17045 ft | 429 kts | 162° |
| 2026-04-23 18:44 | 40.44405 | -74.22575 | 17587 ft | 433 kts | 163° |
| 2026-04-23 18:44 | 40.41581 | -74.21143 | 18092 ft | 437 kts | 163° |
| 2026-04-23 18:45 | 40.38727 | -74.19720 | 18579 ft | 441 kts | 163° |
| 2026-04-23 18:45 | 40.35841 | -74.18293 | 19040 ft | 444 kts | 163° |
| 2026-04-23 18:45 | 40.32960 | -74.16951 | 19481 ft | 445 kts | 169° |
| 2026-04-23 18:45 | 40.29941 | -74.16117 | 19939 ft | 442 kts | 178° |
| 2026-04-23 18:46 | 40.26883 | -74.15928 | 20389 ft | 438 kts | 188° |
| 2026-04-23 18:46 | 40.23829 | -74.16061 | 20851 ft | 441 kts | 188° |
| 2026-04-23 18:46 | 40.20748 | -74.16187 | 21292 ft | 445 kts | 188° |
| 2026-04-23 18:46 | 40.17632 | -74.16259 | 21727 ft | 450 kts | 185° |
| 2026-04-23 18:47 | 40.14499 | -74.15576 | 22097 ft | 467 kts | 164° |
| 2026-04-23 18:47 | 40.11602 | -74.13572 | 22526 ft | 477 kts | 143° |
| 2026-04-23 18:47 | 40.09285 | -74.10475 | 22959 ft | 479 kts | 123° |
| 2026-04-23 18:47 | 40.07769 | -74.06637 | 23344 ft | 476 kts | 103° |
| 2026-04-23 18:48 | 40.06893 | -74.02470 | 23759 ft | 476 kts | 100° |
| 2026-04-23 18:48 | 40.06089 | -73.98257 | 24131 ft | 478 kts | 99° |
| 2026-04-23 18:48 | 40.05296 | -73.94039 | 24535 ft | 480 kts | 99° |
| 2026-04-23 18:48 | 40.04488 | -73.89812 | 24956 ft | 481 kts | 99° |
| 2026-04-23 18:49 | 40.03659 | -73.85576 | 25354 ft | 482 kts | 99° |
| 2026-04-23 18:49 | 40.02810 | -73.81332 | 25744 ft | 484 kts | 99° |
| 2026-04-23 18:49 | 40.01947 | -73.77073 | 26118 ft | 486 kts | 99° |
| 2026-04-23 18:49 | 40.01074 | -73.72811 | 26477 ft | 488 kts | 99° |
| 2026-04-23 18:50 | 40.00492 | -73.69975 | 26716 ft | 489 kts | 99° |
| 2026-04-23 18:50 | 39.99308 | -73.64225 | 27194 ft | 491 kts | 99° |
| 2026-04-23 18:50 | 39.98418 | -73.59914 | 27546 ft | 493 kts | 99° |
| 2026-04-23 18:50 | 39.97525 | -73.55590 | 27890 ft | 495 kts | 98° |
| 2026-04-23 18:51 | 39.96628 | -73.51247 | 28219 ft | 497 kts | 98° |
| 2026-04-23 18:51 | 39.95726 | -73.46892 | 28558 ft | 499 kts | 98° |
| 2026-04-23 18:51 | 39.94830 | -73.42575 | 28881 ft | 501 kts | 98° |
| 2026-04-23 18:51 | 39.93918 | -73.38191 | 29204 ft | 502 kts | 98° |
| 2026-04-23 18:52 | 39.93001 | -73.33788 | 29552 ft | 503 kts | 98° |
| 2026-04-23 18:52 | 39.92083 | -73.29397 | 29991 ft | 502 kts | 98° |
| 2026-04-23 18:52 | 39.91163 | -73.25011 | 30404 ft | 500 kts | 98° |
| 2026-04-23 18:52 | 39.90245 | -73.20638 | 30756 ft | 499 kts | 98° |
| 2026-04-23 18:53 | 39.89328 | -73.16273 | 31030 ft | 500 kts | 97° |
| 2026-04-23 18:53 | 39.88408 | -73.11894 | 31293 ft | 501 kts | 97° |
| 2026-04-23 18:53 | 39.87485 | -73.07520 | 31604 ft | 501 kts | 97° |
| 2026-04-23 18:53 | 39.86561 | -73.03148 | 31942 ft | 500 kts | 97° |
| 2026-04-23 18:54 | 39.85637 | -72.98791 | 32266 ft | 499 kts | 97° |
| 2026-04-23 18:54 | 39.84725 | -72.94490 | 32546 ft | 499 kts | 96° |
| 2026-04-23 18:54 | 39.83799 | -72.90130 | 32840 ft | 499 kts | 96° |
| 2026-04-23 18:54 | 39.82872 | -72.85781 | 33028 ft | 500 kts | 96° |
| 2026-04-23 18:55 | 39.81907 | -72.81410 | 32995 ft | 504 kts | 98° |
| 2026-04-23 18:55 | 39.79632 | -72.72784 | 32990 ft | 503 kts | 101° |
| 2026-04-23 18:56 | 39.77638 | -72.65632 | 33008 ft | 501 kts | 101° |
| 2026-04-23 18:56 | 39.74937 | -72.55735 | 32997 ft | 499 kts | 100° |
| 2026-04-23 18:57 | 39.72646 | -72.47235 | 33001 ft | 499 kts | 100° |
| 2026-04-23 18:57 | 39.70319 | -72.38676 | 33123 ft | 507 kts | 101° |
| 2026-04-23 18:57 | 39.69116 | -72.34362 | 33364 ft | 507 kts | 101° |
| 2026-04-23 18:58 | 39.67909 | -72.30064 | 33733 ft | 505 kts | 101° |
| 2026-04-23 18:58 | 39.66711 | -72.25792 | 34071 ft | 503 kts | 100° |
| 2026-04-23 18:58 | 39.65371 | -72.21578 | 34320 ft | 510 kts | 109° |
| 2026-04-23 18:58 | 39.63569 | -72.17569 | 34519 ft | 520 kts | 118° |
| 2026-04-23 18:59 | 39.61287 | -72.13881 | 34708 ft | 527 kts | 127° |
| 2026-04-23 18:59 | 39.58787 | -72.10411 | 34953 ft | 526 kts | 129° |
| 2026-04-23 18:59 | 39.56250 | -72.06987 | 34991 ft | 528 kts | 129° |
| 2026-04-23 19:00 | 39.51175 | -72.00115 | 34992 ft | 527 kts | 128° |
| 2026-04-23 19:00 | 39.46171 | -71.93203 | 34994 ft | 525 kts | 128° |
| 2026-04-23 19:01 | 39.41232 | -71.86331 | 34993 ft | 524 kts | 128° |
| 2026-04-23 19:01 | 39.36265 | -71.79435 | 34996 ft | 524 kts | 128° |
| 2026-04-23 19:02 | 39.32128 | -71.73712 | 34995 ft | 524 kts | 128° |
| 2026-04-23 19:02 | 39.26313 | -71.65687 | 34997 ft | 524 kts | 128° |
| 2026-04-23 19:03 | 39.20883 | -71.59384 | 34989 ft | 531 kts | 149° |
| 2026-04-23 19:03 | 39.17532 | -71.57395 | 35002 ft | 531 kts | 163° |
| 2026-04-23 19:03 | 39.13945 | -71.56360 | 34988 ft | 526 kts | 180° |
| 2026-04-23 19:04 | 39.06670 | -71.56035 | 34989 ft | 524 kts | 183° |
| 2026-04-23 19:04 | 38.99367 | -71.55717 | 35003 ft | 526 kts | 181° |
| 2026-04-23 19:05 | 38.92032 | -71.55264 | 34995 ft | 528 kts | 181° |
| 2026-04-23 19:05 | 38.84730 | -71.54789 | 34993 ft | 529 kts | 181° |
| 2026-04-23 19:06 | 38.77379 | -71.54341 | 34998 ft | 529 kts | 181° |
| 2026-04-23 19:06 | 38.70028 | -71.53929 | 34990 ft | 528 kts | 181° |
| 2026-04-23 19:07 | 38.62699 | -71.53516 | 34988 ft | 526 kts | 181° |
| 2026-04-23 19:07 | 38.55393 | -71.53099 | 34992 ft | 524 kts | 181° |
| 2026-04-23 19:08 | 38.48110 | -71.52578 | 34993 ft | 523 kts | 180° |
| 2026-04-23 19:08 | 38.40870 | -71.51975 | 34994 ft | 521 kts | 179° |
| 2026-04-23 19:09 | 38.33693 | -71.51385 | 34997 ft | 519 kts | 180° |
| 2026-04-23 19:09 | 38.26496 | -71.50814 | 34998 ft | 517 kts | 180° |
| 2026-04-23 19:10 | 38.19312 | -71.50251 | 34999 ft | 516 kts | 180° |
| 2026-04-23 19:10 | 38.12141 | -71.49691 | 35000 ft | 516 kts | 180° |
| 2026-04-23 19:11 | 38.04970 | -71.49130 | 35000 ft | 515 kts | 180° |
| 2026-04-23 19:11 | 37.97822 | -71.48571 | 34998 ft | 515 kts | 180° |
| 2026-04-23 19:12 | 37.91879 | -71.48108 | 34997 ft | 514 kts | 180° |
| 2026-04-23 19:12 | 37.84731 | -71.47551 | 35001 ft | 514 kts | 180° |
| 2026-04-23 19:13 | 37.76427 | -71.46906 | 34999 ft | 514 kts | 180° |
| 2026-04-23 19:13 | 37.70497 | -71.46446 | 34999 ft | 513 kts | 180° |
| 2026-04-23 19:14 | 37.63360 | -71.45893 | 34998 ft | 512 kts | 180° |
| 2026-04-23 19:14 | 37.56255 | -71.45344 | 35002 ft | 511 kts | 180° |
| 2026-04-23 19:15 | 37.49167 | -71.44538 | 34996 ft | 513 kts | 171° |
| 2026-04-23 19:15 | 37.42413 | -71.41678 | 35000 ft | 514 kts | 155° |
| 2026-04-23 19:16 | 37.35979 | -71.37762 | 34987 ft | 513 kts | 154° |
| 2026-04-23 19:16 | 37.29562 | -71.33852 | 34988 ft | 512 kts | 155° |
| 2026-04-23 19:17 | 37.19928 | -71.28124 | 34989 ft | 510 kts | 155° |
| 2026-04-23 19:17 | 37.13552 | -71.24372 | 34989 ft | 509 kts | 155° |
| 2026-04-23 19:18 | 37.07141 | -71.20606 | 34988 ft | 508 kts | 155° |
| 2026-04-23 19:18 | 37.00747 | -71.16852 | 34984 ft | 508 kts | 155° |
| 2026-04-23 19:19 | 36.91150 | -71.11230 | 34986 ft | 507 kts | 156° |
| 2026-04-23 19:20 | 36.81562 | -71.05628 | 34980 ft | 507 kts | 156° |
| 2026-04-23 19:20 | 36.75176 | -71.01906 | 34979 ft | 507 kts | 156° |
| 2026-04-23 19:21 | 36.65601 | -70.96338 | 34974 ft | 506 kts | 156° |
| 2026-04-23 19:22 | 36.59210 | -70.92630 | 34973 ft | 506 kts | 156° |
| 2026-04-23 19:22 | 36.49669 | -70.87107 | 34971 ft | 506 kts | 156° |
| 2026-04-23 19:23 | 36.43288 | -70.83421 | 34973 ft | 506 kts | 156° |
| 2026-04-23 19:24 | 36.33703 | -70.77898 | 34973 ft | 506 kts | 156° |
| 2026-04-23 19:24 | 36.24128 | -70.72395 | 34974 ft | 505 kts | 157° |
| 2026-04-23 19:25 | 36.11372 | -70.65088 | 34969 ft | 504 kts | 157° |
| 2026-04-23 19:26 | 36.01862 | -70.59657 | 34970 ft | 504 kts | 157° |
| 2026-04-23 19:27 | 35.85964 | -70.50609 | 34975 ft | 502 kts | 157° |
| 2026-04-23 19:28 | 35.73134 | -70.43984 | 34979 ft | 496 kts | 171° |
| 2026-04-23 19:29 | 35.63065 | -70.41388 | 34979 ft | 494 kts | 172° |
| 2026-04-23 19:30 | 35.52961 | -70.38794 | 34976 ft | 494 kts | 171° |
| 2026-04-23 19:31 | 35.42866 | -70.36118 | 34980 ft | 494 kts | 171° |
| 2026-04-23 19:31 | 35.36145 | -70.34334 | 34983 ft | 494 kts | 171° |
| 2026-04-23 19:32 | 35.29431 | -70.32557 | 34983 ft | 494 kts | 171° |
| 2026-04-23 19:32 | 35.22756 | -70.30795 | 34983 ft | 493 kts | 171° |
| 2026-04-23 19:33 | 35.16048 | -70.29028 | 34987 ft | 493 kts | 171° |
| 2026-04-23 19:33 | 35.05993 | -70.26384 | 34987 ft | 493 kts | 171° |
| 2026-04-23 19:34 | 34.99290 | -70.24626 | 34991 ft | 492 kts | 171° |
| 2026-04-23 19:35 | 34.89226 | -70.21991 | 34991 ft | 492 kts | 171° |
| 2026-04-23 19:35 | 34.82570 | -70.20252 | 34998 ft | 492 kts | 171° |
| 2026-04-23 19:36 | 34.75873 | -70.18505 | 34997 ft | 492 kts | 171° |
| 2026-04-23 19:36 | 34.69179 | -70.16762 | 34999 ft | 491 kts | 171° |
| 2026-04-23 19:37 | 34.62488 | -70.15022 | 34998 ft | 491 kts | 171° |
| 2026-04-23 19:37 | 34.55854 | -70.13300 | 35004 ft | 490 kts | 171° |
| 2026-04-23 19:38 | 34.49183 | -70.11571 | 35004 ft | 490 kts | 171° |
| 2026-04-23 19:38 | 34.42517 | -70.09847 | 35007 ft | 490 kts | 171° |
| 2026-04-23 19:39 | 34.35857 | -70.08126 | 35014 ft | 489 kts | 171° |
| 2026-04-23 19:39 | 34.29199 | -70.06410 | 35016 ft | 489 kts | 171° |
| 2026-04-23 19:40 | 34.22547 | -70.04697 | 35016 ft | 488 kts | 171° |
| 2026-04-23 19:40 | 34.15899 | -70.02988 | 35020 ft | 488 kts | 171° |
| 2026-04-23 19:41 | 34.09266 | -70.01286 | 35026 ft | 487 kts | 171° |
| 2026-04-23 19:41 | 34.02636 | -69.99587 | 35032 ft | 486 kts | 171° |
| 2026-04-23 19:42 | 33.96013 | -69.97893 | 35028 ft | 486 kts | 171° |
| 2026-04-23 19:42 | 33.89443 | -69.96215 | 35033 ft | 485 kts | 171° |
| 2026-04-23 19:43 | 33.82830 | -69.94529 | 35038 ft | 485 kts | 172° |
| 2026-04-23 19:43 | 33.76234 | -69.92849 | 35036 ft | 484 kts | 172° |
| 2026-04-23 19:44 | 33.69634 | -69.91172 | 35037 ft | 484 kts | 172° |
| 2026-04-23 19:44 | 33.63047 | -69.89500 | 35038 ft | 484 kts | 172° |
| 2026-04-23 19:45 | 33.56464 | -69.87832 | 35040 ft | 483 kts | 172° |
| 2026-04-23 19:45 | 33.49884 | -69.86167 | 35047 ft | 483 kts | 172° |
| 2026-04-23 19:46 | 33.43342 | -69.84514 | 35047 ft | 483 kts | 172° |
| 2026-04-23 19:46 | 33.36767 | -69.82855 | 35050 ft | 483 kts | 172° |
| 2026-04-23 19:47 | 33.31299 | -69.81477 | 35053 ft | 482 kts | 172° |
| 2026-04-23 19:47 | 33.23617 | -69.79549 | 35060 ft | 482 kts | 172° |
| 2026-04-23 19:48 | 33.17045 | -69.77904 | 35059 ft | 482 kts | 172° |
| 2026-04-23 19:48 | 33.10516 | -69.76272 | 35064 ft | 482 kts | 172° |
| 2026-04-23 19:49 | 33.03945 | -69.74631 | 35062 ft | 482 kts | 172° |
| 2026-04-23 19:49 | 32.97377 | -69.72993 | 35075 ft | 482 kts | 172° |
| 2026-04-23 19:50 | 32.90815 | -69.71358 | 35077 ft | 482 kts | 172° |
| 2026-04-23 19:50 | 32.84247 | -69.69725 | 35075 ft | 482 kts | 172° |
| 2026-04-23 19:51 | 32.77689 | -69.68097 | 35074 ft | 481 kts | 172° |
| 2026-04-23 19:51 | 32.71136 | -69.66473 | 35080 ft | 481 kts | 172° |
| 2026-04-23 19:52 | 32.65687 | -69.65124 | 35084 ft | 481 kts | 172° |
| 2026-04-23 19:52 | 32.58078 | -69.63243 | 35084 ft | 480 kts | 172° |
| 2026-04-23 19:53 | 32.51534 | -69.61628 | 35088 ft | 480 kts | 172° |
| 2026-04-23 19:53 | 32.45000 | -69.60018 | 35094 ft | 479 kts | 172° |
| 2026-04-23 19:54 | 32.38474 | -69.58413 | 35093 ft | 479 kts | 172° |
| 2026-04-23 19:54 | 32.31937 | -69.56806 | 35096 ft | 479 kts | 172° |
| 2026-04-23 19:55 | 32.25410 | -69.55205 | 35096 ft | 478 kts | 172° |
| 2026-04-23 19:55 | 32.18893 | -69.53609 | 35098 ft | 478 kts | 172° |
| 2026-04-23 19:56 | 32.12426 | -69.52027 | 35101 ft | 477 kts | 172° |
| 2026-04-23 19:56 | 32.05926 | -69.50439 | 35103 ft | 477 kts | 172° |
| 2026-04-23 19:57 | 31.99424 | -69.48854 | 35101 ft | 476 kts | 172° |
| 2026-04-23 19:57 | 31.94028 | -69.47539 | 35105 ft | 476 kts | 172° |
| 2026-04-23 19:58 | 31.86447 | -69.45695 | 35111 ft | 475 kts | 172° |
| 2026-04-23 19:58 | 31.79972 | -69.44123 | 35111 ft | 475 kts | 172° |
| 2026-04-23 19:59 | 31.73501 | -69.42554 | 35111 ft | 475 kts | 172° |
| 2026-04-23 19:59 | 31.67032 | -69.40987 | 35112 ft | 474 kts | 172° |
| 2026-04-23 20:00 | 31.60565 | -69.39424 | 35108 ft | 474 kts | 172° |
| 2026-04-23 20:00 | 31.54148 | -69.37874 | 35110 ft | 474 kts | 172° |
| 2026-04-23 20:01 | 31.47690 | -69.36317 | 35113 ft | 473 kts | 172° |
| 2026-04-23 20:01 | 31.42285 | -69.35015 | 35115 ft | 473 kts | 172° |
| 2026-04-23 20:02 | 31.35872 | -69.33473 | 35113 ft | 473 kts | 172° |
| 2026-04-23 20:02 | 31.29409 | -69.31921 | 35124 ft | 473 kts | 172° |
| 2026-04-23 20:03 | 31.22957 | -69.30373 | 35113 ft | 473 kts | 172° |
| 2026-04-23 20:03 | 31.16504 | -69.28828 | 35122 ft | 473 kts | 172° |
| 2026-04-23 20:04 | 31.10045 | -69.27283 | 35120 ft | 474 kts | 172° |
| 2026-04-23 20:04 | 31.03586 | -69.25740 | 35124 ft | 474 kts | 172° |
| 2026-04-23 20:05 | 30.97123 | -69.24198 | 35117 ft | 474 kts | 172° |
| 2026-04-23 20:05 | 30.90661 | -69.22658 | 35123 ft | 474 kts | 172° |
| 2026-04-23 20:06 | 30.84199 | -69.21122 | 35131 ft | 474 kts | 172° |
| 2026-04-23 20:06 | 30.77729 | -69.19586 | 35123 ft | 474 kts | 172° |
| 2026-04-23 20:07 | 30.71261 | -69.18051 | 35122 ft | 474 kts | 172° |
| 2026-04-23 20:07 | 30.64797 | -69.16519 | 35126 ft | 474 kts | 172° |
| 2026-04-23 20:08 | 30.58376 | -69.14999 | 35126 ft | 474 kts | 172° |
| 2026-04-23 20:08 | 30.51911 | -69.13471 | 35125 ft | 473 kts | 172° |
| 2026-04-23 20:09 | 30.45450 | -69.11946 | 35124 ft | 473 kts | 172° |
| 2026-04-23 20:09 | 30.38998 | -69.10426 | 35125 ft | 473 kts | 173° |
| 2026-04-23 20:10 | 30.32559 | -69.08910 | 35128 ft | 472 kts | 173° |
| 2026-04-23 20:10 | 30.26117 | -69.07396 | 35127 ft | 472 kts | 173° |
| 2026-04-23 20:11 | 30.19683 | -69.05886 | 35131 ft | 472 kts | 173° |
| 2026-04-23 20:11 | 30.13253 | -69.04378 | 35126 ft | 471 kts | 173° |
| 2026-04-23 20:12 | 30.06828 | -69.02874 | 35127 ft | 471 kts | 173° |
| 2026-04-23 20:12 | 30.00445 | -69.01381 | 35133 ft | 471 kts | 173° |
| 2026-04-23 20:13 | 29.94027 | -68.99883 | 35125 ft | 471 kts | 173° |
| 2026-04-23 20:13 | 29.87608 | -68.98386 | 35127 ft | 470 kts | 173° |
| 2026-04-23 20:14 | 29.81194 | -68.96892 | 35128 ft | 470 kts | 173° |
| 2026-04-23 20:14 | 29.74788 | -68.95402 | 35127 ft | 470 kts | 173° |
| 2026-04-23 20:15 | 29.68380 | -68.93913 | 35129 ft | 469 kts | 173° |
| 2026-04-23 20:15 | 29.61981 | -68.92429 | 35128 ft | 469 kts | 174° |
| 2026-04-23 20:16 | 29.55588 | -68.90948 | 35125 ft | 468 kts | 174° |
| 2026-04-23 20:16 | 29.49196 | -68.89469 | 35127 ft | 468 kts | 174° |
| 2026-04-23 20:17 | 29.42845 | -68.88001 | 35128 ft | 468 kts | 174° |
| 2026-04-23 20:17 | 29.36468 | -68.86529 | 35124 ft | 467 kts | 174° |
| 2026-04-23 20:18 | 29.30101 | -68.85061 | 35125 ft | 467 kts | 174° |
| 2026-04-23 20:18 | 29.23721 | -68.83593 | 35127 ft | 467 kts | 174° |
| 2026-04-23 20:19 | 29.17356 | -68.82129 | 35126 ft | 466 kts | 175° |
| 2026-04-23 20:19 | 29.10993 | -68.80668 | 35124 ft | 466 kts | 175° |
| 2026-04-23 20:20 | 29.04623 | -68.79207 | 35123 ft | 466 kts | 175° |
| 2026-04-23 20:20 | 28.98301 | -68.77759 | 35127 ft | 466 kts | 175° |
| 2026-04-23 20:21 | 28.91931 | -68.76301 | 35122 ft | 466 kts | 175° |
| 2026-04-23 20:21 | 28.85562 | -68.74845 | 35121 ft | 466 kts | 176° |
| 2026-04-23 20:22 | 28.79191 | -68.73391 | 35126 ft | 466 kts | 176° |
| 2026-04-23 20:22 | 28.72826 | -68.71938 | 35125 ft | 466 kts | 176° |
| 2026-04-23 20:23 | 28.66456 | -68.70484 | 35121 ft | 466 kts | 176° |
| 2026-04-23 20:23 | 28.60097 | -68.69035 | 35120 ft | 466 kts | 176° |
| 2026-04-23 20:24 | 28.53741 | -68.67589 | 35121 ft | 466 kts | 176° |
| 2026-04-23 20:24 | 28.47428 | -68.66154 | 35119 ft | 465 kts | 177° |
| 2026-04-23 20:25 | 28.41077 | -68.64712 | 35121 ft | 465 kts | 177° |
| 2026-04-23 20:25 | 28.34741 | -68.63275 | 35118 ft | 464 kts | 177° |
| 2026-04-23 20:26 | 28.28408 | -68.61841 | 35117 ft | 464 kts | 177° |
| 2026-04-23 20:26 | 28.22078 | -68.60409 | 35120 ft | 463 kts | 178° |
| 2026-04-23 20:27 | 28.15758 | -68.58981 | 35114 ft | 462 kts | 178° |
| 2026-04-23 20:27 | 28.09448 | -68.57557 | 35113 ft | 462 kts | 178° |
| 2026-04-23 20:28 | 28.03149 | -68.56137 | 35115 ft | 461 kts | 178° |
| 2026-04-23 20:28 | 27.96890 | -68.54728 | 35108 ft | 461 kts | 178° |
| 2026-04-23 20:29 | 27.90599 | -68.53315 | 35110 ft | 461 kts | 178° |
| 2026-04-23 20:29 | 27.84310 | -68.51907 | 35107 ft | 461 kts | 179° |
| 2026-04-23 20:30 | 27.78022 | -68.50500 | 35108 ft | 461 kts | 179° |
| 2026-04-23 20:30 | 27.68583 | -68.48391 | 35108 ft | 461 kts | 179° |
| 2026-04-23 20:31 | 27.62291 | -68.46988 | 35108 ft | 461 kts | 179° |
| 2026-04-23 20:31 | 27.56003 | -68.45586 | 35106 ft | 461 kts | 179° |
| 2026-04-23 20:32 | 27.49748 | -68.44194 | 35106 ft | 461 kts | 179° |
| 2026-04-23 20:32 | 27.43448 | -68.42793 | 35114 ft | 461 kts | 179° |
| 2026-04-23 20:33 | 27.37154 | -68.41395 | 35105 ft | 461 kts | 179° |
| 2026-04-23 20:33 | 27.30858 | -68.39998 | 35106 ft | 461 kts | 179° |
| 2026-04-23 20:34 | 27.24567 | -68.38604 | 35100 ft | 461 kts | 180° |
| 2026-04-23 20:34 | 27.18281 | -68.37212 | 35101 ft | 460 kts | 180° |
| 2026-04-23 20:35 | 27.11995 | -68.35822 | 35099 ft | 460 kts | 180° |
| 2026-04-23 20:35 | 27.05750 | -68.34443 | 35096 ft | 460 kts | 180° |
| 2026-04-23 20:36 | 26.99479 | -68.33060 | 35097 ft | 459 kts | 180° |
| 2026-04-23 20:36 | 26.93205 | -68.31678 | 35095 ft | 459 kts | 180° |
| 2026-04-23 20:37 | 26.86940 | -68.30299 | 35097 ft | 459 kts | 180° |
| 2026-04-23 20:37 | 26.80674 | -68.28922 | 35092 ft | 459 kts | 180° |
| 2026-04-23 20:38 | 26.74398 | -68.27544 | 35092 ft | 459 kts | 180° |
| 2026-04-23 20:38 | 26.68129 | -68.26169 | 35093 ft | 459 kts | 180° |
| 2026-04-23 20:39 | 26.61900 | -68.24804 | 35091 ft | 458 kts | 180° |
| 2026-04-23 20:39 | 26.55638 | -68.23433 | 35091 ft | 458 kts | 180° |
| 2026-04-23 20:40 | 26.49374 | -68.22064 | 35087 ft | 458 kts | 180° |
| 2026-04-23 20:40 | 26.43111 | -68.20696 | 35089 ft | 458 kts | 180° |
| 2026-04-23 20:41 | 26.36853 | -68.19331 | 35088 ft | 458 kts | 180° |
| 2026-04-23 20:41 | 26.30606 | -68.17970 | 35085 ft | 457 kts | 181° |
| 2026-04-23 20:42 | 26.24358 | -68.16610 | 35085 ft | 457 kts | 181° |
| 2026-04-23 20:42 | 26.18111 | -68.15252 | 35084 ft | 456 kts | 181° |
| 2026-04-23 20:43 | 26.11885 | -68.13899 | 35080 ft | 456 kts | 181° |
| 2026-04-23 20:43 | 26.05691 | -68.12555 | 35081 ft | 455 kts | 181° |
| 2026-04-23 20:44 | 25.99479 | -68.11209 | 35084 ft | 455 kts | 181° |
| 2026-04-23 20:44 | 25.93270 | -68.09865 | 35080 ft | 454 kts | 181° |
| 2026-04-23 20:45 | 25.87068 | -68.08524 | 35081 ft | 454 kts | 181° |
| 2026-04-23 20:45 | 25.80867 | -68.07184 | 35082 ft | 453 kts | 181° |
| 2026-04-23 20:46 | 25.74677 | -68.05849 | 35080 ft | 453 kts | 181° |
| 2026-04-23 20:46 | 25.68482 | -68.04513 | 35079 ft | 453 kts | 181° |
| 2026-04-23 20:47 | 25.62296 | -68.03181 | 35074 ft | 452 kts | 181° |
| 2026-04-23 20:47 | 25.56148 | -68.01859 | 35075 ft | 452 kts | 181° |
| 2026-04-23 20:48 | 25.49958 | -68.00528 | 35074 ft | 452 kts | 181° |
| 2026-04-23 20:48 | 25.44825 | -67.99427 | 35073 ft | 452 kts | 181° |
| 2026-04-23 20:49 | 25.38646 | -67.98102 | 35072 ft | 452 kts | 181° |
| 2026-04-23 20:49 | 25.32462 | -67.96778 | 35071 ft | 453 kts | 181° |
| 2026-04-23 20:50 | 25.26279 | -67.95454 | 35072 ft | 453 kts | 181° |
| 2026-04-23 20:50 | 25.20082 | -67.94128 | 35069 ft | 453 kts | 181° |
| 2026-04-23 20:51 | 25.13934 | -67.92815 | 35067 ft | 453 kts | 181° |
| 2026-04-23 20:51 | 25.07740 | -67.91492 | 35073 ft | 453 kts | 181° |
| 2026-04-23 20:52 | 25.01542 | -67.90171 | 35071 ft | 453 kts | 181° |
| 2026-04-23 20:52 | 24.95340 | -67.88850 | 35061 ft | 454 kts | 181° |
| 2026-04-23 20:53 | 24.89140 | -67.87530 | 35060 ft | 454 kts | 181° |
| 2026-04-23 20:53 | 24.82930 | -67.86210 | 35062 ft | 454 kts | 181° |
| 2026-04-23 20:54 | 24.76725 | -67.84892 | 35063 ft | 454 kts | 181° |
| 2026-04-23 20:54 | 24.70563 | -67.83585 | 35062 ft | 454 kts | 181° |
| 2026-04-23 20:55 | 24.64355 | -67.82269 | 35058 ft | 454 kts | 181° |
| 2026-04-23 20:55 | 24.58157 | -67.80957 | 35056 ft | 454 kts | 181° |
| 2026-04-23 20:56 | 24.51957 | -67.79646 | 35058 ft | 454 kts | 181° |
| 2026-04-23 20:56 | 24.45754 | -67.78335 | 35055 ft | 454 kts | 181° |
| 2026-04-23 20:57 | 24.39560 | -67.77027 | 35060 ft | 453 kts | 181° |
| 2026-04-23 20:57 | 24.33353 | -67.75718 | 35056 ft | 453 kts | 181° |
| 2026-04-23 20:58 | 24.27159 | -67.74413 | 35048 ft | 453 kts | 181° |
| 2026-04-23 20:58 | 24.20964 | -67.73110 | 35050 ft | 453 kts | 181° |
| 2026-04-23 20:59 | 24.14771 | -67.71809 | 35053 ft | 453 kts | 181° |
| 2026-04-23 20:59 | 24.08575 | -67.70508 | 35051 ft | 453 kts | 181° |
| 2026-04-23 21:00 | 24.02424 | -67.69217 | 35050 ft | 453 kts | 181° |
| 2026-04-23 21:00 | 23.96232 | -67.67919 | 35047 ft | 453 kts | 181° |
| 2026-04-23 21:01 | 23.90030 | -67.66621 | 35043 ft | 453 kts | 181° |
| 2026-04-23 21:01 | 23.83838 | -67.65325 | 35043 ft | 453 kts | 181° |
| 2026-04-23 21:02 | 23.77628 | -67.64027 | 35044 ft | 454 kts | 181° |
| 2026-04-23 21:02 | 23.71427 | -67.62732 | 35037 ft | 454 kts | 181° |
| 2026-04-23 21:03 | 23.65229 | -67.61439 | 35040 ft | 454 kts | 181° |
| 2026-04-23 21:03 | 23.59057 | -67.60153 | 35044 ft | 454 kts | 181° |
| 2026-04-23 21:04 | 23.52846 | -67.58860 | 35037 ft | 454 kts | 181° |
| 2026-04-23 21:04 | 23.46637 | -67.57569 | 35037 ft | 454 kts | 181° |
| 2026-04-23 21:05 | 23.40426 | -67.56278 | 35033 ft | 454 kts | 181° |
| 2026-04-23 21:05 | 23.34220 | -67.54989 | 35034 ft | 454 kts | 181° |
| 2026-04-23 21:06 | 23.28057 | -67.53711 | 35033 ft | 454 kts | 181° |
| 2026-04-23 21:06 | 23.21857 | -67.52426 | 35031 ft | 453 kts | 180° |
| 2026-04-23 21:07 | 23.15661 | -67.51143 | 35026 ft | 453 kts | 180° |
| 2026-04-23 21:07 | 23.09465 | -67.49862 | 35031 ft | 453 kts | 180° |
| 2026-04-23 21:08 | 23.03262 | -67.48580 | 35029 ft | 453 kts | 180° |
| 2026-04-23 21:08 | 22.97066 | -67.47301 | 35021 ft | 453 kts | 180° |
| 2026-04-23 21:09 | 22.90877 | -67.46025 | 35020 ft | 453 kts | 180° |
| 2026-04-23 21:09 | 22.84678 | -67.44747 | 35034 ft | 453 kts | 180° |
| 2026-04-23 21:10 | 22.78481 | -67.43472 | 35026 ft | 453 kts | 180° |
| 2026-04-23 21:10 | 22.72326 | -67.42206 | 35017 ft | 453 kts | 180° |
| 2026-04-23 21:11 | 22.66126 | -67.40932 | 35017 ft | 454 kts | 180° |
| 2026-04-23 21:11 | 22.59916 | -67.39657 | 35015 ft | 454 kts | 180° |
| 2026-04-23 21:12 | 22.53698 | -67.38382 | 35022 ft | 455 kts | 180° |
| 2026-04-23 21:12 | 22.47475 | -67.37107 | 35022 ft | 455 kts | 180° |
| 2026-04-23 21:13 | 22.41244 | -67.35830 | 35017 ft | 456 kts | 180° |
| 2026-04-23 21:13 | 22.35010 | -67.34555 | 35020 ft | 456 kts | 180° |
| 2026-04-23 21:14 | 22.28777 | -67.33280 | 35020 ft | 456 kts | 180° |
| 2026-04-23 21:14 | 22.22532 | -67.32005 | 35017 ft | 456 kts | 180° |
| 2026-04-23 21:15 | 22.16337 | -67.30748 | 35015 ft | 456 kts | 180° |
| 2026-04-23 21:15 | 22.10093 | -67.29485 | 35015 ft | 456 kts | 179° |
| 2026-04-23 21:16 | 22.03853 | -67.28223 | 35016 ft | 456 kts | 179° |
| 2026-04-23 21:16 | 21.97597 | -67.26958 | 35010 ft | 456 kts | 179° |
| 2026-04-23 21:17 | 21.91355 | -67.25697 | 35010 ft | 456 kts | 179° |
| 2026-04-23 21:17 | 21.85112 | -67.24437 | 35007 ft | 457 kts | 179° |
| 2026-04-23 21:18 | 21.78866 | -67.23177 | 35006 ft | 457 kts | 179° |
| 2026-04-23 21:18 | 21.72652 | -67.21925 | 35006 ft | 457 kts | 179° |
| 2026-04-23 21:19 | 21.66395 | -67.20665 | 35005 ft | 457 kts | 179° |
| 2026-04-23 21:19 | 21.60131 | -67.19414 | 35004 ft | 457 kts | 180° |
| 2026-04-23 21:20 | 21.53862 | -67.18245 | 35011 ft | 457 kts | 180° |
| 2026-04-23 21:20 | 21.47623 | -67.17096 | 35007 ft | 457 kts | 180° |
| 2026-04-23 21:21 | 21.41343 | -67.15928 | 35012 ft | 458 kts | 180° |
| 2026-04-23 21:21 | 21.35062 | -67.14757 | 35002 ft | 458 kts | 180° |
| 2026-04-23 21:22 | 21.28793 | -67.13261 | 34988 ft | 474 kts | 166° |
| 2026-04-23 21:22 | 21.25834 | -67.11580 | 35003 ft | 490 kts | 153° |
| 2026-04-23 21:22 | 21.23209 | -67.09167 | 35007 ft | 504 kts | 140° |
| 2026-04-23 21:23 | 21.18717 | -67.03307 | 35003 ft | 508 kts | 137° |
| 2026-04-23 21:23 | 21.14130 | -66.97552 | 34997 ft | 507 kts | 138° |
| 2026-04-23 21:24 | 21.09528 | -66.91898 | 35000 ft | 506 kts | 138° |
| 2026-04-23 21:24 | 21.04873 | -66.86178 | 35003 ft | 506 kts | 138° |
| 2026-04-23 21:25 | 21.00290 | -66.80530 | 35001 ft | 505 kts | 138° |
| 2026-04-23 21:25 | 20.95684 | -66.74848 | 35000 ft | 505 kts | 138° |
| 2026-04-23 21:26 | 20.91081 | -66.69175 | 34999 ft | 504 kts | 137° |
| 2026-04-23 21:26 | 20.86476 | -66.63506 | 35000 ft | 504 kts | 137° |
| 2026-04-23 21:27 | 20.81875 | -66.57849 | 34998 ft | 504 kts | 137° |
| 2026-04-23 21:27 | 20.77272 | -66.52196 | 34996 ft | 504 kts | 137° |
| 2026-04-23 21:28 | 20.72663 | -66.46541 | 34995 ft | 504 kts | 137° |
| 2026-04-23 21:28 | 20.68058 | -66.40895 | 35000 ft | 504 kts | 138° |
| 2026-04-23 21:29 | 20.63445 | -66.35247 | 34995 ft | 504 kts | 138° |
| 2026-04-23 21:29 | 20.58835 | -66.29608 | 34994 ft | 504 kts | 138° |
| 2026-04-23 21:30 | 20.54248 | -66.24001 | 34989 ft | 504 kts | 138° |
| 2026-04-23 21:30 | 20.49637 | -66.18371 | 34996 ft | 504 kts | 138° |
| 2026-04-23 21:31 | 20.45020 | -66.12740 | 34993 ft | 504 kts | 137° |
| 2026-04-23 21:31 | 20.40401 | -66.07111 | 35000 ft | 504 kts | 138° |
| 2026-04-23 21:32 | 20.35789 | -66.01497 | 34992 ft | 503 kts | 138° |
| 2026-04-23 21:32 | 20.31172 | -65.95883 | 34987 ft | 503 kts | 138° |
| 2026-04-23 21:33 | 20.26562 | -65.90281 | 34987 ft | 503 kts | 138° |
| 2026-04-23 21:33 | 20.21947 | -65.84680 | 34986 ft | 502 kts | 138° |
| 2026-04-23 21:34 | 20.17332 | -65.79084 | 34991 ft | 502 kts | 138° |
| 2026-04-23 21:34 | 20.12719 | -65.73497 | 34988 ft | 502 kts | 138° |
| 2026-04-23 21:35 | 20.08135 | -65.67949 | 34989 ft | 502 kts | 138° |
| 2026-04-23 21:35 | 20.03528 | -65.62379 | 34990 ft | 501 kts | 138° |
| 2026-04-23 21:36 | 19.96617 | -65.54033 | 34987 ft | 501 kts | 138° |
| 2026-04-23 21:37 | 19.92007 | -65.48474 | 34982 ft | 501 kts | 138° |
| 2026-04-23 21:37 | 19.88145 | -65.43820 | 34982 ft | 501 kts | 138° |
| 2026-04-23 21:38 | 19.83568 | -65.38309 | 34984 ft | 501 kts | 138° |
| 2026-04-23 21:38 | 19.78959 | -65.32765 | 34983 ft | 501 kts | 138° |
| 2026-04-23 21:39 | 19.74348 | -65.27225 | 34981 ft | 500 kts | 138° |
| 2026-04-23 21:39 | 19.69735 | -65.21687 | 34983 ft | 500 kts | 138° |
| 2026-04-23 21:40 | 19.65126 | -65.16157 | 34985 ft | 500 kts | 138° |
| 2026-04-23 21:40 | 19.60514 | -65.10631 | 34982 ft | 500 kts | 138° |
| 2026-04-23 21:41 | 19.55902 | -65.05109 | 34980 ft | 500 kts | 138° |
| 2026-04-23 21:41 | 19.51295 | -64.99599 | 34985 ft | 499 kts | 138° |
| 2026-04-23 21:42 | 19.46683 | -64.94088 | 34978 ft | 499 kts | 138° |
| 2026-04-23 21:42 | 19.42107 | -64.88625 | 34977 ft | 499 kts | 138° |
| 2026-04-23 21:43 | 19.37500 | -64.83130 | 34977 ft | 498 kts | 138° |
| 2026-04-23 21:43 | 19.32894 | -64.77642 | 34976 ft | 498 kts | 138° |
| 2026-04-23 21:44 | 19.28294 | -64.72165 | 34979 ft | 498 kts | 138° |
| 2026-04-23 21:44 | 19.23687 | -64.66686 | 34659 ft | 504 kts | 138° |
| 2026-04-23 21:44 | 19.21335 | -64.63898 | 33913 ft | 509 kts | 137° |
| 2026-04-23 21:45 | 19.18979 | -64.61101 | 33053 ft | 509 kts | 137° |
| 2026-04-23 21:45 | 19.16624 | -64.58303 | 32241 ft | 509 kts | 137° |
| 2026-04-23 21:45 | 19.14280 | -64.55515 | 31666 ft | 503 kts | 137° |
| 2026-04-23 21:45 | 19.11963 | -64.52760 | 31070 ft | 499 kts | 136° |
| 2026-04-23 21:46 | 19.09669 | -64.50035 | 30466 ft | 495 kts | 136° |
| 2026-04-23 21:46 | 19.07385 | -64.47326 | 29828 ft | 491 kts | 136° |
| 2026-04-23 21:46 | 19.05123 | -64.44645 | 29168 ft | 486 kts | 136° |
| 2026-04-23 21:46 | 19.02882 | -64.41991 | 28550 ft | 481 kts | 136° |
| 2026-04-23 21:47 | 19.00665 | -64.39366 | 27958 ft | 476 kts | 136° |
| 2026-04-23 21:47 | 18.98498 | -64.36803 | 27388 ft | 471 kts | 136° |
| 2026-04-23 21:47 | 18.96325 | -64.34232 | 26814 ft | 466 kts | 136° |
| 2026-04-23 21:47 | 18.94176 | -64.31692 | 26246 ft | 462 kts | 136° |
| 2026-04-23 21:48 | 18.92046 | -64.29175 | 25687 ft | 457 kts | 136° |
| 2026-04-23 21:48 | 18.89932 | -64.26679 | 25105 ft | 454 kts | 135° |
| 2026-04-23 21:48 | 18.87833 | -64.24202 | 24542 ft | 451 kts | 135° |
| 2026-04-23 21:48 | 18.85748 | -64.21742 | 23977 ft | 448 kts | 135° |
| 2026-04-23 21:49 | 18.83671 | -64.19291 | 23390 ft | 445 kts | 135° |
| 2026-04-23 21:49 | 18.81614 | -64.16866 | 22758 ft | 442 kts | 135° |
| 2026-04-23 21:49 | 18.79572 | -64.14458 | 22189 ft | 437 kts | 135° |
| 2026-04-23 21:49 | 18.77557 | -64.12083 | 21643 ft | 432 kts | 135° |
| 2026-04-23 21:50 | 18.75560 | -64.09731 | 21096 ft | 427 kts | 135° |
| 2026-04-23 21:50 | 18.73586 | -64.07406 | 20563 ft | 423 kts | 134° |
| 2026-04-23 21:50 | 18.71631 | -64.05105 | 20038 ft | 419 kts | 134° |
| 2026-04-23 21:50 | 18.69694 | -64.02826 | 19515 ft | 415 kts | 134° |
| 2026-04-23 21:51 | 18.67772 | -64.00566 | 18977 ft | 412 kts | 134° |
| 2026-04-23 21:51 | 18.65869 | -63.98329 | 18454 ft | 409 kts | 134° |
| 2026-04-23 21:51 | 18.63979 | -63.96108 | 17880 ft | 405 kts | 134° |
| 2026-04-23 21:51 | 18.62103 | -63.93903 | 17323 ft | 401 kts | 134° |
| 2026-04-23 21:52 | 18.60250 | -63.91727 | 16790 ft | 397 kts | 134° |
| 2026-04-23 21:52 | 18.58437 | -63.89597 | 16278 ft | 393 kts | 134° |
| 2026-04-23 21:52 | 18.56621 | -63.87465 | 15770 ft | 389 kts | 133° |
| 2026-04-23 21:52 | 18.54823 | -63.85357 | 15266 ft | 385 kts | 133° |
| 2026-04-23 21:53 | 18.53037 | -63.83261 | 14744 ft | 383 kts | 133° |
| 2026-04-23 21:53 | 18.51258 | -63.81175 | 14237 ft | 380 kts | 133° |
| 2026-04-23 21:53 | 18.49492 | -63.79106 | 13711 ft | 378 kts | 133° |
| 2026-04-23 21:53 | 18.47740 | -63.77052 | 13155 ft | 375 kts | 133° |
| 2026-04-23 21:54 | 18.46002 | -63.75016 | 12633 ft | 372 kts | 133° |
| 2026-04-23 21:54 | 18.44285 | -63.73005 | 12132 ft | 368 kts | 133° |
| 2026-04-23 21:54 | 18.42582 | -63.71011 | 11635 ft | 364 kts | 133° |
| 2026-04-23 21:54 | 18.40896 | -63.69038 | 11176 ft | 360 kts | 133° |
| 2026-04-23 21:55 | 18.39254 | -63.67117 | 11020 ft | 346 kts | 133° |
| 2026-04-23 21:55 | 18.37608 | -63.65300 | 10677 ft | 340 kts | 136° |
| 2026-04-23 21:55 | 18.35933 | -63.63618 | 10333 ft | 335 kts | 137° |
| 2026-04-23 21:55 | 18.34247 | -63.61972 | 9977 ft | 324 kts | 137° |
| 2026-04-23 21:56 | 18.32643 | -63.60409 | 9899 ft | 302 kts | 137° |
| 2026-04-23 21:56 | 18.31156 | -63.58954 | 9722 ft | 287 kts | 137° |
| 2026-04-23 21:56 | 18.29682 | -63.57504 | 9353 ft | 286 kts | 137° |
| 2026-04-23 21:56 | 18.28250 | -63.56090 | 9178 ft | 279 kts | 137° |
| 2026-04-23 21:57 | 18.26840 | -63.54695 | 8855 ft | 278 kts | 137° |
| 2026-04-23 21:57 | 18.25436 | -63.53303 | 8537 ft | 276 kts | 136° |
| 2026-04-23 21:57 | 18.24040 | -63.51919 | 8218 ft | 275 kts | 136° |
| 2026-04-23 21:57 | 18.22652 | -63.50542 | 7914 ft | 273 kts | 136° |
| 2026-04-23 21:58 | 18.21270 | -63.49170 | 7617 ft | 272 kts | 136° |
| 2026-04-23 21:58 | 18.19902 | -63.47811 | 7316 ft | 270 kts | 136° |
| 2026-04-23 21:58 | 18.18550 | -63.46469 | 6934 ft | 266 kts | 136° |
| 2026-04-23 21:58 | 18.17204 | -63.45134 | 6454 ft | 266 kts | 136° |
| 2026-04-23 21:59 | 18.15865 | -63.43805 | 6057 ft | 263 kts | 136° |
| 2026-04-23 21:59 | 18.14537 | -63.42487 | 5789 ft | 262 kts | 136° |
| 2026-04-23 21:59 | 18.13208 | -63.41169 | 5505 ft | 263 kts | 136° |
| 2026-04-23 22:00 | 18.10555 | -63.38538 | 4937 ft | 262 kts | 136° |
| 2026-04-23 22:00 | 18.09247 | -63.37240 | 4669 ft | 261 kts | 136° |
| 2026-04-23 22:00 | 18.07928 | -63.35932 | 4374 ft | 260 kts | 136° |
| 2026-04-23 22:00 | 18.06611 | -63.34627 | 4089 ft | 259 kts | 136° |
| 2026-04-23 22:01 | 18.05305 | -63.33334 | 3808 ft | 257 kts | 136° |
| 2026-04-23 22:01 | 18.04009 | -63.32050 | 3533 ft | 255 kts | 135° |
| 2026-04-23 22:01 | 18.02725 | -63.30777 | 3272 ft | 253 kts | 133° |
| 2026-04-23 22:01 | 18.01807 | -63.29255 | 2968 ft | 244 kts | 104° |
| 2026-04-23 22:02 | 18.01699 | -63.27554 | 2881 ft | 225 kts | 83° |
| 2026-04-23 22:02 | 18.01931 | -63.25970 | 2678 ft | 216 kts | 80° |
| 2026-04-23 22:02 | 18.02158 | -63.24439 | 2422 ft | 208 kts | 81° |
| 2026-04-23 22:02 | 18.02369 | -63.22958 | 2158 ft | 201 kts | 81° |
| 2026-04-23 22:03 | 18.02572 | -63.21534 | 1895 ft | 194 kts | 80° |
| 2026-04-23 22:03 | 18.02769 | -63.20155 | 1622 ft | 188 kts | 80° |
| 2026-04-23 22:03 | 18.02958 | -63.18832 | 1386 ft | 178 kts | 80° |
| 2026-04-23 22:03 | 18.03136 | -63.17583 | 1158 ft | 167 kts | 79° |
| 2026-04-23 22:04 | 18.03301 | -63.16429 | 987 ft | 151 kts | 79° |
| 2026-04-23 22:04 | 18.03453 | -63.15370 | 754 ft | 143 kts | 79° |
| 2026-04-23 22:04 | 18.03602 | -63.14328 | 569 ft | 145 kts | 80° |
| 2026-04-23 22:04 | 18.03747 | -63.13279 | 311 ft | 144 kts | 79° |
| 2026-04-23 22:05 | 18.03901 | -63.12235 | 106 ft | 144 kts | 81° |
| 2026-04-23 22:05 | 18.04046 | -63.11227 | 28 ft | 130 kts | 82° |
| 2026-04-23 22:05 | 18.04148 | -63.10505 | 27 ft | 68 kts | 81° |
| 2026-04-23 22:05 | 18.04194 | -63.10187 | 26 ft | 35 kts | 81° |
| 2026-04-23 22:06 | 18.04233 | -63.09964 | 30 ft | 20 kts | 64° |
| 2026-04-23 22:06 | 18.04249 | -63.09864 | 30 ft | 5 kts | 173° |
| 2026-04-23 22:06 | 18.04227 | -63.09949 | 30 ft | 26 kts | 263° |
| 2026-04-23 22:06 | 18.04189 | -63.10212 | 26 ft | 44 kts | 261° |
| 2026-04-23 22:07 | 18.04139 | -63.10568 | 27 ft | 53 kts | 261° |
| 2026-04-23 22:07 | 18.04093 | -63.10884 | 26 ft | 26 kts | 261° |
| 2026-04-23 22:07 | 18.04122 | -63.10992 | 27 ft | 11 kts | 337° |
| 2026-04-23 22:07 | 18.04168 | -63.11018 | 27 ft | 9 kts | 284° |
| 2026-04-23 22:08 | 18.04159 | -63.11106 | 28 ft | 14 kts | 261° |
| 2026-04-23 22:08 | 18.04140 | -63.11231 | 27 ft | 19 kts | 261° |
| 2026-04-23 22:08 | 18.04180 | -63.11302 | 28 ft | 12 kts | 351° |
| 2026-04-23 22:08 | 18.04264 | -63.11286 | 28 ft | 13 kts | 56° |
| 2026-04-23 22:09 | 18.04303 | -63.11227 | 28 ft | 5 kts | 26° |
| 2026-04-23 22:09 | 18.04334 | -63.11226 | 28 ft | 5 kts | 354° |
| 2026-04-23 22:09 | 18.04345 | -63.11227 | 28 ft | 0 kts | 354° |